Albert Maersk — OUOW2 — position and weather

sailwx.info

Track history (hours):
 
Tides and Currents Weather Stations Pressure Air Temp Water Temp Dewpoint Dewpoint Depression Visibility Wind Speed Wind Dir Waves Ship Positions

Albert Maersk

Last reported at 2014-Oct-26 16:29 UTC. Time now 2014-Oct-30 13:55 UTC.
Position N 30°34' E 122°54'.

MMSI: 220259928.

Date/timePositionNaut miles runAvg speedWind from/ knotsBaromVisibWave heightAir tempDewpointWater temp
2014-Oct-26 16:29N 30°34' E 122°54'3511.5
2014-Oct-26 13:25N 30°33' E 122°13'1011.2
2014-Oct-26 12:32N 30°38' E 122°03'0 0.0
2014-Oct-25 15:27N 30°38' E 122°03'1 0.6
2014-Oct-25 14:33N 30°38' E 122°02'7 7.3
2014-Oct-25 13:33N 30°34' E 122°10'1210.8
2014-Oct-25 12:28N 30°32' E 122°23'5 5.1
2014-Oct-25 11:28N 30°32' E 122°29'13 6.6
2014-Oct-25 09:29N 30°29' E 122°44'12 6.4
2014-Oct-25 07:33N 30°20' E 122°54'44412.0
2014-Oct-23 18:25N 23°58' E 118°40'1213.9
2014-Oct-23 17:34N 23°51' E 118°29'1613.8
2014-Oct-23 16:26N 23°42' E 118°15'  
2014-Oct-20 20:06N 22°20' E 114°07'25 5.1
2014-Oct-20 15:11N 22°00' E 114°24'2615.0
2014-Oct-20 13:26N 21°34' E 114°21'1315.1
2014-Oct-20 12:33N 21°22' E 114°16'1515.2
2014-Oct-20 11:33N 21°07' E 114°11'  
Track history (hours):
 
Tides and Currents Weather Stations Pressure Air Temp Water Temp Dewpoint Dewpoint Depression Visibility Wind Speed Wind Dir Waves Ship Positions

Albert Maersk

Last reported at 2014-Oct-26 16:29 UTC. Time now 2014-Oct-30 13:55 UTC.
Position N 30°34' E 122°54'.

MMSI: 220259928.

Date/timePositionNaut miles runAvg speedWind from/ knotsBaromVisibWave heightAir tempDewpointWater temp
2014-Oct-26 16:29N 30°34' E 122°54'3511.5
2014-Oct-26 13:25N 30°33' E 122°13'1011.2
2014-Oct-26 12:32N 30°38' E 122°03'0 0.0
2014-Oct-25 15:27N 30°38' E 122°03'1 0.6
2014-Oct-25 14:33N 30°38' E 122°02'7 7.3
2014-Oct-25 13:33N 30°34' E 122°10'1210.8
2014-Oct-25 12:28N 30°32' E 122°23'5 5.1
2014-Oct-25 11:28N 30°32' E 122°29'13 6.6
2014-Oct-25 09:29N 30°29' E 122°44'12 6.4
2014-Oct-25 07:33N 30°20' E 122°54'44412.0
2014-Oct-23 18:25N 23°58' E 118°40'1213.9
2014-Oct-23 17:34N 23°51' E 118°29'1613.8
2014-Oct-23 16:26N 23°42' E 118°15'  
2014-Oct-20 20:06N 22°20' E 114°07'25 5.1
2014-Oct-20 15:11N 22°00' E 114°24'2615.0
2014-Oct-20 13:26N 21°34' E 114°21'1315.1
2014-Oct-20 12:33N 21°22' E 114°16'1515.2
2014-Oct-20 11:33N 21°07' E 114°11'  

Dump ship's entire track history